Terminal Aerodrome Forecast
Issued by NWS

Home | Current Version | Previous Version | Text Only | Print | Product List | Glossary On
Versions: 1 2 3 4 5 6 7 8 9 10 11 12 13 14 15 16
000
FTUS41 KPBZ 261120
TAFAGC
TAF
KAGC 261120Z 2612/2712 25009KT P6SM SCT090
     FM261800 24011G21KT P6SM VCSH BKN050
     FM270000 27008KT P6SM BKN250
     FM270700 25004KT P6SM BKN050=

USA.gov is the U.S. government's official web portal to all federal, state and local government web resources and services.